sensor_id;sensor_type;location;lat;lon;timestamp;P1;durP1;ratioP1;P2;durP2;ratioP2
22160;SDS011;49035;48.812;11.762;2022-07-24T00:01:28;19.00;;;14.20;;
22160;SDS011;49035;48.812;11.762;2022-07-24T00:03:54;19.13;;;15.13;;
22160;SDS011;49035;48.812;11.762;2022-07-24T00:06:19;19.85;;;15.90;;
22160;SDS011;49035;48.812;11.762;2022-07-24T00:08:45;17.40;;;14.02;;
22160;SDS011;49035;48.812;11.762;2022-07-24T00:11:10;22.98;;;16.60;;
22160;SDS011;49035;48.812;11.762;2022-07-24T00:13:36;23.23;;;17.13;;
22160;SDS011;49035;48.812;11.762;2022-07-24T00:16:02;27.60;;;17.15;;
22160;SDS011;49035;48.812;11.762;2022-07-24T00:18:28;26.92;;;18.25;;
22160;SDS011;49035;48.812;11.762;2022-07-24T00:20:53;25.55;;;18.55;;
22160;SDS011;49035;48.812;11.762;2022-07-24T00:23:19;24.67;;;18.55;;
22160;SDS011;49035;48.812;11.762;2022-07-24T00:25:46;26.77;;;18.25;;
22160;SDS011;49035;48.812;11.762;2022-07-24T00:28:12;26.77;;;17.35;;
22160;SDS011;49035;48.812;11.762;2022-07-24T00:30:37;28.42;;;19.70;;
22160;SDS011;49035;48.812;11.762;2022-07-24T00:33:03;24.70;;;18.20;;
22160;SDS011;49035;48.812;11.762;2022-07-24T00:35:28;23.27;;;16.63;;
22160;SDS011;49035;48.812;11.762;2022-07-24T00:37:54;21.80;;;16.55;;
22160;SDS011;49035;48.812;11.762;2022-07-24T00:40:20;23.13;;;15.82;;
22160;SDS011;49035;48.812;11.762;2022-07-24T00:42:46;20.10;;;15.13;;
22160;SDS011;49035;48.812;11.762;2022-07-24T00:45:11;21.40;;;15.13;;
22160;SDS011;49035;48.812;11.762;2022-07-24T00:47:37;17.45;;;13.77;;
22160;SDS011;49035;48.812;11.762;2022-07-24T00:50:03;19.38;;;15.07;;
22160;SDS011;49035;48.812;11.762;2022-07-24T00:52:29;20.85;;;14.20;;
22160;SDS011;49035;48.812;11.762;2022-07-24T00:54:55;22.75;;;14.75;;
22160;SDS011;49035;48.812;11.762;2022-07-24T00:57:21;20.20;;;13.13;;
22160;SDS011;49035;48.812;11.762;2022-07-24T00:59:47;23.30;;;15.48;;
22160;SDS011;49035;48.812;11.762;2022-07-24T01:02:12;19.00;;;15.20;;
22160;SDS011;49035;48.812;11.762;2022-07-24T01:04:38;20.35;;;15.38;;
22160;SDS011;49035;48.812;11.762;2022-07-24T01:07:05;23.60;;;16.05;;
22160;SDS011;49035;48.812;11.762;2022-07-24T01:09:32;24.77;;;17.20;;
22160;SDS011;49035;48.812;11.762;2022-07-24T01:11:57;22.30;;;16.60;;
22160;SDS011;49035;48.812;11.762;2022-07-24T01:14:24;25.13;;;17.77;;
22160;SDS011;49035;48.812;11.762;2022-07-24T01:16:50;25.33;;;18.38;;
22160;SDS011;49035;48.812;11.762;2022-07-24T01:19:16;25.13;;;18.13;;
22160;SDS011;49035;48.812;11.762;2022-07-24T01:21:46;27.98;;;17.38;;
22160;SDS011;49035;48.812;11.762;2022-07-24T01:24:18;23.90;;;17.17;;
22160;SDS011;49035;48.812;11.762;2022-07-24T01:26:44;29.02;;;18.00;;
22160;SDS011;49035;48.812;11.762;2022-07-24T01:29:11;28.35;;;20.25;;
22160;SDS011;49035;48.812;11.762;2022-07-24T01:31:37;31.85;;;20.25;;
22160;SDS011;49035;48.812;11.762;2022-07-24T01:34:03;27.77;;;18.70;;
22160;SDS011;49035;48.812;11.762;2022-07-24T01:36:29;24.58;;;18.08;;
22160;SDS011;49035;48.812;11.762;2022-07-24T01:38:54;27.42;;;18.05;;
22160;SDS011;49035;48.812;11.762;2022-07-24T01:41:20;24.15;;;16.92;;
22160;SDS011;49035;48.812;11.762;2022-07-24T01:43:46;22.00;;;16.48;;
22160;SDS011;49035;48.812;11.762;2022-07-24T01:46:11;23.70;;;16.27;;
22160;SDS011;49035;48.812;11.762;2022-07-24T01:48:37;30.00;;;19.75;;
22160;SDS011;49035;48.812;11.762;2022-07-24T01:51:05;26.00;;;17.23;;
22160;SDS011;49035;48.812;11.762;2022-07-24T01:53:30;25.80;;;18.55;;
22160;SDS011;49035;48.812;11.762;2022-07-24T01:55:56;25.15;;;18.27;;
22160;SDS011;49035;48.812;11.762;2022-07-24T01:58:21;24.30;;;17.02;;
22160;SDS011;49035;48.812;11.762;2022-07-24T02:00:47;24.80;;;15.82;;
22160;SDS011;49035;48.812;11.762;2022-07-24T02:03:13;26.45;;;17.33;;
22160;SDS011;49035;48.812;11.762;2022-07-24T02:05:39;18.40;;;15.23;;
22160;SDS011;49035;48.812;11.762;2022-07-24T02:08:04;25.80;;;17.30;;
22160;SDS011;49035;48.812;11.762;2022-07-24T02:10:30;23.27;;;16.17;;
22160;SDS011;49035;48.812;11.762;2022-07-24T02:12:56;23.63;;;17.45;;
22160;SDS011;49035;48.812;11.762;2022-07-24T02:15:22;24.58;;;17.67;;
22160;SDS011;49035;48.812;11.762;2022-07-24T02:17:49;25.25;;;17.33;;
22160;SDS011;49035;48.812;11.762;2022-07-24T02:20:17;29.10;;;17.02;;
22160;SDS011;49035;48.812;11.762;2022-07-24T02:22:43;28.23;;;18.10;;
22160;SDS011;49035;48.812;11.762;2022-07-24T02:25:09;25.83;;;17.83;;
22160;SDS011;49035;48.812;11.762;2022-07-24T02:27:36;27.02;;;19.10;;
22160;SDS011;49035;48.812;11.762;2022-07-24T02:30:04;28.75;;;18.90;;
22160;SDS011;49035;48.812;11.762;2022-07-24T02:32:31;27.25;;;19.02;;
22160;SDS011;49035;48.812;11.762;2022-07-24T02:34:57;28.40;;;19.10;;
22160;SDS011;49035;48.812;11.762;2022-07-24T02:37:22;27.48;;;17.85;;
22160;SDS011;49035;48.812;11.762;2022-07-24T02:39:48;30.27;;;18.88;;
22160;SDS011;49035;48.812;11.762;2022-07-24T02:42:13;28.85;;;19.88;;
22160;SDS011;49035;48.812;11.762;2022-07-24T02:44:39;31.70;;;20.70;;
22160;SDS011;49035;48.812;11.762;2022-07-24T02:47:05;28.77;;;20.40;;
22160;SDS011;49035;48.812;11.762;2022-07-24T02:49:30;23.48;;;17.55;;
22160;SDS011;49035;48.812;11.762;2022-07-24T02:51:56;23.90;;;15.70;;
22160;SDS011;49035;48.812;11.762;2022-07-24T02:54:21;25.40;;;17.50;;
22160;SDS011;49035;48.812;11.762;2022-07-24T02:56:47;27.13;;;17.58;;
22160;SDS011;49035;48.812;11.762;2022-07-24T02:59:13;22.55;;;16.80;;
22160;SDS011;49035;48.812;11.762;2022-07-24T03:01:39;25.25;;;16.55;;
22160;SDS011;49035;48.812;11.762;2022-07-24T03:04:04;20.73;;;15.00;;
22160;SDS011;49035;48.812;11.762;2022-07-24T03:06:30;21.33;;;16.15;;
22160;SDS011;49035;48.812;11.762;2022-07-24T03:08:56;22.73;;;16.40;;
22160;SDS011;49035;48.812;11.762;2022-07-24T03:11:21;22.50;;;15.80;;
22160;SDS011;49035;48.812;11.762;2022-07-24T03:13:47;20.52;;;15.40;;
22160;SDS011;49035;48.812;11.762;2022-07-24T03:16:13;21.95;;;16.23;;
22160;SDS011;49035;48.812;11.762;2022-07-24T03:18:38;24.52;;;16.33;;
22160;SDS011;49035;48.812;11.762;2022-07-24T03:21:06;23.87;;;17.73;;
22160;SDS011;49035;48.812;11.762;2022-07-24T03:23:31;22.13;;;15.88;;
22160;SDS011;49035;48.812;11.762;2022-07-24T03:25:57;25.33;;;19.48;;
22160;SDS011;49035;48.812;11.762;2022-07-24T03:28:22;48.15;;;29.75;;
22160;SDS011;49035;48.812;11.762;2022-07-24T03:30:48;29.60;;;19.42;;
22160;SDS011;49035;48.812;11.762;2022-07-24T03:33:13;28.75;;;19.58;;
22160;SDS011;49035;48.812;11.762;2022-07-24T03:35:39;28.50;;;20.50;;
22160;SDS011;49035;48.812;11.762;2022-07-24T03:38:05;49.85;;;26.35;;
22160;SDS011;49035;48.812;11.762;2022-07-24T03:40:30;44.28;;;26.08;;
22160;SDS011;49035;48.812;11.762;2022-07-24T03:42:56;36.60;;;24.63;;
22160;SDS011;49035;48.812;11.762;2022-07-24T03:45:21;34.53;;;24.63;;
22160;SDS011;49035;48.812;11.762;2022-07-24T03:47:47;32.97;;;22.33;;
22160;SDS011;49035;48.812;11.762;2022-07-24T03:50:12;39.27;;;24.30;;
22160;SDS011;49035;48.812;11.762;2022-07-24T03:52:38;39.88;;;23.02;;
22160;SDS011;49035;48.812;11.762;2022-07-24T03:55:03;38.78;;;22.23;;
22160;SDS011;49035;48.812;11.762;2022-07-24T03:57:30;35.45;;;21.40;;
22160;SDS011;49035;48.812;11.762;2022-07-24T03:59:55;35.15;;;22.33;;
22160;SDS011;49035;48.812;11.762;2022-07-24T04:02:21;28.23;;;21.15;;
22160;SDS011;49035;48.812;11.762;2022-07-24T04:04:46;29.02;;;18.63;;
22160;SDS011;49035;48.812;11.762;2022-07-24T04:07:12;24.80;;;18.17;;
22160;SDS011;49035;48.812;11.762;2022-07-24T04:09:37;26.75;;;18.20;;
22160;SDS011;49035;48.812;11.762;2022-07-24T04:12:03;28.33;;;19.37;;
22160;SDS011;49035;48.812;11.762;2022-07-24T04:14:29;31.30;;;20.90;;
22160;SDS011;49035;48.812;11.762;2022-07-24T04:16:54;32.33;;;20.08;;
22160;SDS011;49035;48.812;11.762;2022-07-24T04:19:20;37.20;;;21.98;;
22160;SDS011;49035;48.812;11.762;2022-07-24T04:21:46;35.10;;;22.13;;
22160;SDS011;49035;48.812;11.762;2022-07-24T04:24:11;35.88;;;24.10;;
22160;SDS011;49035;48.812;11.762;2022-07-24T04:26:37;34.45;;;23.52;;
22160;SDS011;49035;48.812;11.762;2022-07-24T04:29:03;39.22;;;24.35;;
22160;SDS011;49035;48.812;11.762;2022-07-24T04:31:28;35.75;;;23.52;;
22160;SDS011;49035;48.812;11.762;2022-07-24T04:33:54;33.15;;;23.73;;
22160;SDS011;49035;48.812;11.762;2022-07-24T04:36:20;34.88;;;23.40;;
22160;SDS011;49035;48.812;11.762;2022-07-24T04:38:48;33.90;;;21.08;;
22160;SDS011;49035;48.812;11.762;2022-07-24T04:41:14;28.58;;;21.65;;
22160;SDS011;49035;48.812;11.762;2022-07-24T04:43:42;26.27;;;19.17;;
22160;SDS011;49035;48.812;11.762;2022-07-24T04:46:08;33.90;;;21.17;;
22160;SDS011;49035;48.812;11.762;2022-07-24T04:48:33;28.92;;;21.00;;
22160;SDS011;49035;48.812;11.762;2022-07-24T04:50:59;28.80;;;19.92;;
22160;SDS011;49035;48.812;11.762;2022-07-24T04:53:24;34.03;;;23.25;;
22160;SDS011;49035;48.812;11.762;2022-07-24T04:55:50;42.40;;;25.73;;
22160;SDS011;49035;48.812;11.762;2022-07-24T04:58:16;32.05;;;23.05;;
22160;SDS011;49035;48.812;11.762;2022-07-24T05:00:41;30.85;;;22.98;;
22160;SDS011;49035;48.812;11.762;2022-07-24T05:03:07;24.95;;;20.67;;
22160;SDS011;49035;48.812;11.762;2022-07-24T05:05:32;23.67;;;19.80;;
22160;SDS011;49035;48.812;11.762;2022-07-24T05:07:58;23.15;;;19.50;;
22160;SDS011;49035;48.812;11.762;2022-07-24T05:10:23;24.63;;;19.20;;
22160;SDS011;49035;48.812;11.762;2022-07-24T05:12:49;26.98;;;18.60;;
22160;SDS011;49035;48.812;11.762;2022-07-24T05:15:14;18.65;;;16.73;;
22160;SDS011;49035;48.812;11.762;2022-07-24T05:17:40;16.13;;;14.38;;
22160;SDS011;49035;48.812;11.762;2022-07-24T05:20:06;16.05;;;13.98;;
22160;SDS011;49035;48.812;11.762;2022-07-24T05:22:32;18.92;;;12.88;;
22160;SDS011;49035;48.812;11.762;2022-07-24T05:24:58;12.52;;;11.23;;
22160;SDS011;49035;48.812;11.762;2022-07-24T05:27:24;12.13;;;10.65;;
22160;SDS011;49035;48.812;11.762;2022-07-24T05:29:49;11.50;;;10.30;;
22160;SDS011;49035;48.812;11.762;2022-07-24T05:32:15;10.27;;;9.27;;
22160;SDS011;49035;48.812;11.762;2022-07-24T05:34:41;10.60;;;9.10;;
22160;SDS011;49035;48.812;11.762;2022-07-24T05:37:07;11.50;;;9.98;;
22160;SDS011;49035;48.812;11.762;2022-07-24T05:39:33;11.27;;;10.10;;
22160;SDS011;49035;48.812;11.762;2022-07-24T05:41:59;14.73;;;10.55;;
22160;SDS011;49035;48.812;11.762;2022-07-24T05:44:24;12.68;;;11.07;;
22160;SDS011;49035;48.812;11.762;2022-07-24T05:46:50;11.57;;;10.48;;
22160;SDS011;49035;48.812;11.762;2022-07-24T05:49:15;13.00;;;10.55;;
22160;SDS011;49035;48.812;11.762;2022-07-24T05:51:41;11.38;;;10.10;;
22160;SDS011;49035;48.812;11.762;2022-07-24T05:54:07;14.95;;;11.73;;
22160;SDS011;49035;48.812;11.762;2022-07-24T05:56:32;13.10;;;11.65;;
22160;SDS011;49035;48.812;11.762;2022-07-24T05:58:58;14.82;;;11.00;;
22160;SDS011;49035;48.812;11.762;2022-07-24T06:01:24;12.55;;;11.18;;
22160;SDS011;49035;48.812;11.762;2022-07-24T06:03:49;13.55;;;12.07;;
22160;SDS011;49035;48.812;11.762;2022-07-24T06:06:15;16.52;;;12.05;;
22160;SDS011;49035;48.812;11.762;2022-07-24T06:08:40;12.40;;;11.20;;
22160;SDS011;49035;48.812;11.762;2022-07-24T06:11:06;11.65;;;10.45;;
22160;SDS011;49035;48.812;11.762;2022-07-24T06:13:32;14.70;;;11.20;;
22160;SDS011;49035;48.812;11.762;2022-07-24T06:15:57;11.88;;;10.68;;
22160;SDS011;49035;48.812;11.762;2022-07-24T06:18:23;12.65;;;10.30;;
22160;SDS011;49035;48.812;11.762;2022-07-24T06:20:49;11.80;;;10.70;;
22160;SDS011;49035;48.812;11.762;2022-07-24T06:23:14;13.07;;;10.75;;
22160;SDS011;49035;48.812;11.762;2022-07-24T06:25:40;12.38;;;11.13;;
22160;SDS011;49035;48.812;11.762;2022-07-24T06:28:05;9.95;;;8.95;;
22160;SDS011;49035;48.812;11.762;2022-07-24T06:30:31;11.80;;;10.60;;
22160;SDS011;49035;48.812;11.762;2022-07-24T06:32:58;13.48;;;10.20;;
22160;SDS011;49035;48.812;11.762;2022-07-24T06:35:24;12.68;;;10.45;;
22160;SDS011;49035;48.812;11.762;2022-07-24T06:37:52;12.68;;;11.02;;
22160;SDS011;49035;48.812;11.762;2022-07-24T06:40:18;11.57;;;10.18;;
22160;SDS011;49035;48.812;11.762;2022-07-24T06:42:45;12.45;;;10.07;;
22160;SDS011;49035;48.812;11.762;2022-07-24T06:45:12;11.15;;;9.40;;
22160;SDS011;49035;48.812;11.762;2022-07-24T06:47:38;9.38;;;8.38;;
22160;SDS011;49035;48.812;11.762;2022-07-24T06:50:04;10.93;;;9.68;;
22160;SDS011;49035;48.812;11.762;2022-07-24T06:52:30;9.27;;;8.38;;
22160;SDS011;49035;48.812;11.762;2022-07-24T06:54:56;10.55;;;9.07;;
22160;SDS011;49035;48.812;11.762;2022-07-24T06:57:22;9.98;;;8.50;;
22160;SDS011;49035;48.812;11.762;2022-07-24T06:59:48;11.20;;;8.85;;
22160;SDS011;49035;48.812;11.762;2022-07-24T07:02:14;8.05;;;7.32;;
22160;SDS011;49035;48.812;11.762;2022-07-24T07:04:40;10.73;;;9.70;;
22160;SDS011;49035;48.812;11.762;2022-07-24T07:07:06;10.57;;;8.15;;
22160;SDS011;49035;48.812;11.762;2022-07-24T07:09:31;8.48;;;7.68;;
22160;SDS011;49035;48.812;11.762;2022-07-24T07:11:57;9.55;;;8.13;;
22160;SDS011;49035;48.812;11.762;2022-07-24T07:14:22;10.10;;;9.05;;
22160;SDS011;49035;48.812;11.762;2022-07-24T07:16:48;7.57;;;6.90;;
22160;SDS011;49035;48.812;11.762;2022-07-24T07:19:13;10.73;;;9.45;;
22160;SDS011;49035;48.812;11.762;2022-07-24T07:21:39;9.52;;;8.60;;
22160;SDS011;49035;48.812;11.762;2022-07-24T07:24:05;9.38;;;8.45;;
22160;SDS011;49035;48.812;11.762;2022-07-24T07:26:31;7.85;;;7.00;;
22160;SDS011;49035;48.812;11.762;2022-07-24T07:28:57;10.55;;;8.70;;
22160;SDS011;49035;48.812;11.762;2022-07-24T07:31:22;10.30;;;9.30;;
22160;SDS011;49035;48.812;11.762;2022-07-24T07:33:49;10.27;;;9.15;;
22160;SDS011;49035;48.812;11.762;2022-07-24T07:36:15;9.60;;;8.57;;
22160;SDS011;49035;48.812;11.762;2022-07-24T07:38:41;7.70;;;6.90;;
22160;SDS011;49035;48.812;11.762;2022-07-24T07:41:07;9.07;;;7.55;;
22160;SDS011;49035;48.812;11.762;2022-07-24T07:43:32;11.25;;;7.97;;
22160;SDS011;49035;48.812;11.762;2022-07-24T07:45:58;9.93;;;8.18;;
22160;SDS011;49035;48.812;11.762;2022-07-24T07:48:23;8.73;;;7.85;;
22160;SDS011;49035;48.812;11.762;2022-07-24T07:50:49;10.98;;;8.10;;
22160;SDS011;49035;48.812;11.762;2022-07-24T07:53:15;8.13;;;7.22;;
22160;SDS011;49035;48.812;11.762;2022-07-24T07:55:40;9.82;;;8.10;;
22160;SDS011;49035;48.812;11.762;2022-07-24T07:58:06;9.07;;;7.95;;
22160;SDS011;49035;48.812;11.762;2022-07-24T08:00:32;8.82;;;7.68;;
22160;SDS011;49035;48.812;11.762;2022-07-24T08:02:58;9.45;;;8.40;;
22160;SDS011;49035;48.812;11.762;2022-07-24T08:05:23;9.48;;;7.93;;
22160;SDS011;49035;48.812;11.762;2022-07-24T08:07:49;8.73;;;7.90;;
22160;SDS011;49035;48.812;11.762;2022-07-24T08:10:15;10.45;;;8.73;;
22160;SDS011;49035;48.812;11.762;2022-07-24T08:12:40;10.40;;;7.68;;
22160;SDS011;49035;48.812;11.762;2022-07-24T08:15:06;10.43;;;9.05;;
22160;SDS011;49035;48.812;11.762;2022-07-24T08:17:33;11.63;;;9.20;;
22160;SDS011;49035;48.812;11.762;2022-07-24T08:19:58;9.45;;;8.48;;
22160;SDS011;49035;48.812;11.762;2022-07-24T08:22:24;12.07;;;9.52;;
22160;SDS011;49035;48.812;11.762;2022-07-24T08:24:49;12.02;;;8.65;;
22160;SDS011;49035;48.812;11.762;2022-07-24T08:27:15;12.23;;;8.18;;
22160;SDS011;49035;48.812;11.762;2022-07-24T08:29:40;9.60;;;8.70;;
22160;SDS011;49035;48.812;11.762;2022-07-24T08:32:06;7.40;;;6.70;;
22160;SDS011;49035;48.812;11.762;2022-07-24T08:34:32;8.15;;;7.30;;
22160;SDS011;49035;48.812;11.762;2022-07-24T08:36:57;10.23;;;8.10;;
22160;SDS011;49035;48.812;11.762;2022-07-24T08:39:23;10.18;;;7.38;;
22160;SDS011;49035;48.812;11.762;2022-07-24T08:41:48;8.63;;;7.10;;
22160;SDS011;49035;48.812;11.762;2022-07-24T08:44:14;9.25;;;6.80;;
22160;SDS011;49035;48.812;11.762;2022-07-24T08:46:40;8.82;;;6.63;;
22160;SDS011;49035;48.812;11.762;2022-07-24T08:49:07;7.80;;;7.00;;
22160;SDS011;49035;48.812;11.762;2022-07-24T08:51:36;7.35;;;6.75;;
22160;SDS011;49035;48.812;11.762;2022-07-24T08:54:05;7.97;;;6.18;;
22160;SDS011;49035;48.812;11.762;2022-07-24T08:56:31;9.05;;;6.43;;
22160;SDS011;49035;48.812;11.762;2022-07-24T08:59:01;6.50;;;5.90;;
22160;SDS011;49035;48.812;11.762;2022-07-24T09:01:27;7.00;;;5.43;;
22160;SDS011;49035;48.812;11.762;2022-07-24T09:03:53;8.02;;;6.07;;
22160;SDS011;49035;48.812;11.762;2022-07-24T09:06:19;9.70;;;6.68;;
22160;SDS011;49035;48.812;11.762;2022-07-24T09:09:05;8.20;;;6.05;;
22160;SDS011;49035;48.812;11.762;2022-07-24T09:11:32;7.32;;;5.95;;
22160;SDS011;49035;48.812;11.762;2022-07-24T09:14:01;7.82;;;5.50;;
22160;SDS011;49035;48.812;11.762;2022-07-24T09:16:48;8.00;;;6.60;;
22160;SDS011;49035;48.812;11.762;2022-07-24T09:19:14;6.53;;;5.80;;
22160;SDS011;49035;48.812;11.762;2022-07-24T09:21:41;6.38;;;5.72;;
22160;SDS011;49035;48.812;11.762;2022-07-24T09:24:16;8.95;;;5.95;;
22160;SDS011;49035;48.812;11.762;2022-07-24T09:29:18;8.18;;;6.25;;
22160;SDS011;49035;48.812;11.762;2022-07-24T09:32:03;7.38;;;5.43;;
22160;SDS011;49035;48.812;11.762;2022-07-24T09:34:30;6.13;;;5.63;;
22160;SDS011;49035;48.812;11.762;2022-07-24T09:37:04;11.10;;;6.50;;
22160;SDS011;49035;48.812;11.762;2022-07-24T09:39:34;6.13;;;5.50;;
22160;SDS011;49035;48.812;11.762;2022-07-24T09:42:02;7.03;;;5.72;;
22160;SDS011;49035;48.812;11.762;2022-07-24T09:44:29;8.30;;;5.70;;
22160;SDS011;49035;48.812;11.762;2022-07-24T09:49:27;6.35;;;5.75;;
22160;SDS011;49035;48.812;11.762;2022-07-24T09:54:47;7.93;;;5.53;;
22160;SDS011;49035;48.812;11.762;2022-07-24T10:02:26;6.07;;;5.32;;
22160;SDS011;49035;48.812;11.762;2022-07-24T10:04:53;7.88;;;5.70;;
22160;SDS011;49035;48.812;11.762;2022-07-24T10:07:20;6.63;;;5.45;;
22160;SDS011;49035;48.812;11.762;2022-07-24T10:09:49;6.82;;;5.75;;
22160;SDS011;49035;48.812;11.762;2022-07-24T10:12:17;7.40;;;6.60;;
22160;SDS011;49035;48.812;11.762;2022-07-24T10:14:45;6.63;;;5.72;;
22160;SDS011;49035;48.812;11.762;2022-07-24T10:17:12;8.35;;;5.63;;
22160;SDS011;49035;48.812;11.762;2022-07-24T10:19:43;7.05;;;6.10;;
22160;SDS011;49035;48.812;11.762;2022-07-24T10:22:11;8.57;;;5.68;;
22160;SDS011;49035;48.812;11.762;2022-07-24T10:24:47;14.00;;;12.55;;
22160;SDS011;49035;48.812;11.762;2022-07-24T10:27:27;11.55;;;7.07;;
22160;SDS011;49035;48.812;11.762;2022-07-24T10:30:07;7.43;;;6.22;;
22160;SDS011;49035;48.812;11.762;2022-07-24T10:32:35;7.93;;;6.40;;
22160;SDS011;49035;48.812;11.762;2022-07-24T10:37:55;10.25;;;6.75;;
22160;SDS011;49035;48.812;11.762;2022-07-24T10:40:36;8.10;;;6.05;;
22160;SDS011;49035;48.812;11.762;2022-07-24T10:43:10;7.32;;;6.40;;
22160;SDS011;49035;48.812;11.762;2022-07-24T10:46:13;6.80;;;6.20;;
22160;SDS011;49035;48.812;11.762;2022-07-24T10:48:35;8.32;;;6.43;;
22160;SDS011;49035;48.812;11.762;2022-07-24T10:51:06;9.70;;;7.32;;
22160;SDS011;49035;48.812;11.762;2022-07-24T11:01:31;8.60;;;5.80;;
22160;SDS011;49035;48.812;11.762;2022-07-24T11:06:55;7.15;;;6.45;;
22160;SDS011;49035;48.812;11.762;2022-07-24T11:09:59;8.75;;;6.35;;
22160;SDS011;49035;48.812;11.762;2022-07-24T11:12:30;6.25;;;5.60;;
22160;SDS011;49035;48.812;11.762;2022-07-24T11:15:01;8.88;;;6.95;;
22160;SDS011;49035;48.812;11.762;2022-07-24T11:17:47;7.53;;;5.85;;
22160;SDS011;49035;48.812;11.762;2022-07-24T11:20:14;11.23;;;5.93;;
22160;SDS011;49035;48.812;11.762;2022-07-24T11:25:18;6.82;;;6.15;;
22160;SDS011;49035;48.812;11.762;2022-07-24T11:27:46;6.55;;;5.95;;
22160;SDS011;49035;48.812;11.762;2022-07-24T11:30:13;6.60;;;5.65;;
22160;SDS011;49035;48.812;11.762;2022-07-24T11:32:40;6.60;;;5.65;;
22160;SDS011;49035;48.812;11.762;2022-07-24T11:35:06;6.28;;;5.68;;
22160;SDS011;49035;48.812;11.762;2022-07-24T11:37:34;6.60;;;5.97;;
22160;SDS011;49035;48.812;11.762;2022-07-24T11:40:04;6.35;;;5.50;;
22160;SDS011;49035;48.812;11.762;2022-07-24T11:42:31;6.00;;;5.50;;
22160;SDS011;49035;48.812;11.762;2022-07-24T11:44:57;8.23;;;5.60;;
22160;SDS011;49035;48.812;11.762;2022-07-24T11:47:24;6.55;;;5.82;;
22160;SDS011;49035;48.812;11.762;2022-07-24T11:49:53;9.88;;;6.25;;
22160;SDS011;49035;48.812;11.762;2022-07-24T11:52:35;6.43;;;5.45;;
22160;SDS011;49035;48.812;11.762;2022-07-24T11:55:04;10.30;;;6.10;;
22160;SDS011;49035;48.812;11.762;2022-07-24T11:57:34;8.00;;;6.07;;
22160;SDS011;49035;48.812;11.762;2022-07-24T12:00:02;7.15;;;5.82;;
22160;SDS011;49035;48.812;11.762;2022-07-24T12:02:35;7.13;;;5.55;;
22160;SDS011;49035;48.812;11.762;2022-07-24T12:05:01;6.28;;;5.57;;
22160;SDS011;49035;48.812;11.762;2022-07-24T12:07:26;6.63;;;5.40;;
22160;SDS011;49035;48.812;11.762;2022-07-24T12:10:00;6.30;;;5.72;;
22160;SDS011;49035;48.812;11.762;2022-07-24T12:12:27;7.05;;;5.80;;
22160;SDS011;49035;48.812;11.762;2022-07-24T12:17:34;5.97;;;5.35;;
22160;SDS011;49035;48.812;11.762;2022-07-24T12:20:20;6.20;;;5.55;;
22160;SDS011;49035;48.812;11.762;2022-07-24T12:22:52;6.10;;;5.28;;
22160;SDS011;49035;48.812;11.762;2022-07-24T12:25:19;7.47;;;5.20;;
22160;SDS011;49035;48.812;11.762;2022-07-24T12:27:45;6.18;;;5.57;;
22160;SDS011;49035;48.812;11.762;2022-07-24T12:30:27;6.25;;;5.65;;
22160;SDS011;49035;48.812;11.762;2022-07-24T12:35:22;6.32;;;5.72;;
22160;SDS011;49035;48.812;11.762;2022-07-24T12:37:48;5.93;;;5.40;;
22160;SDS011;49035;48.812;11.762;2022-07-24T12:40:47;6.53;;;5.70;;
22160;SDS011;49035;48.812;11.762;2022-07-24T12:43:07;5.72;;;5.20;;
22160;SDS011;49035;48.812;11.762;2022-07-24T12:45:34;9.45;;;5.85;;
22160;SDS011;49035;48.812;11.762;2022-07-24T12:48:11;6.90;;;6.13;;
22160;SDS011;49035;48.812;11.762;2022-07-24T12:53:39;9.30;;;5.55;;
22160;SDS011;49035;48.812;11.762;2022-07-24T12:56:08;6.55;;;5.38;;
22160;SDS011;49035;48.812;11.762;2022-07-24T13:01:27;6.25;;;5.75;;
22160;SDS011;49035;48.812;11.762;2022-07-24T13:04:08;5.60;;;4.95;;
22160;SDS011;49035;48.812;11.762;2022-07-24T13:06:39;5.95;;;5.30;;
22160;SDS011;49035;48.812;11.762;2022-07-24T13:09:07;5.88;;;5.38;;
22160;SDS011;49035;48.812;11.762;2022-07-24T13:11:35;5.72;;;5.13;;
22160;SDS011;49035;48.812;11.762;2022-07-24T13:14:01;5.97;;;5.28;;
22160;SDS011;49035;48.812;11.762;2022-07-24T13:16:31;6.15;;;5.28;;
22160;SDS011;49035;48.812;11.762;2022-07-24T13:18:59;5.53;;;5.03;;
22160;SDS011;49035;48.812;11.762;2022-07-24T13:21:25;6.82;;;5.40;;
22160;SDS011;49035;48.812;11.762;2022-07-24T13:23:51;6.47;;;5.78;;
22160;SDS011;49035;48.812;11.762;2022-07-24T13:26:17;7.40;;;5.32;;
22160;SDS011;49035;48.812;11.762;2022-07-24T13:28:44;6.28;;;5.68;;
22160;SDS011;49035;48.812;11.762;2022-07-24T13:31:09;6.53;;;5.57;;
22160;SDS011;49035;48.812;11.762;2022-07-24T13:33:35;7.60;;;6.60;;
22160;SDS011;49035;48.812;11.762;2022-07-24T13:36:01;6.85;;;6.15;;
22160;SDS011;49035;48.812;11.762;2022-07-24T13:38:26;7.15;;;6.30;;
22160;SDS011;49035;48.812;11.762;2022-07-24T13:40:52;7.45;;;6.10;;
22160;SDS011;49035;48.812;11.762;2022-07-24T13:43:18;6.38;;;5.65;;
22160;SDS011;49035;48.812;11.762;2022-07-24T13:45:43;6.90;;;6.20;;
22160;SDS011;49035;48.812;11.762;2022-07-24T13:48:09;7.15;;;6.45;;
22160;SDS011;49035;48.812;11.762;2022-07-24T13:50:35;9.43;;;5.68;;
22160;SDS011;49035;48.812;11.762;2022-07-24T13:53:01;7.97;;;6.25;;
22160;SDS011;49035;48.812;11.762;2022-07-24T13:55:26;6.25;;;5.68;;
22160;SDS011;49035;48.812;11.762;2022-07-24T13:57:52;6.32;;;5.72;;
22160;SDS011;49035;48.812;11.762;2022-07-24T14:00:18;6.40;;;5.75;;
22160;SDS011;49035;48.812;11.762;2022-07-24T14:02:44;6.65;;;5.90;;
22160;SDS011;49035;48.812;11.762;2022-07-24T14:05:09;6.20;;;5.43;;
22160;SDS011;49035;48.812;11.762;2022-07-24T14:07:35;8.15;;;6.13;;
22160;SDS011;49035;48.812;11.762;2022-07-24T14:10:01;8.88;;;6.13;;
22160;SDS011;49035;48.812;11.762;2022-07-24T14:12:26;6.38;;;5.65;;
22160;SDS011;49035;48.812;11.762;2022-07-24T14:14:53;6.93;;;6.28;;
22160;SDS011;49035;48.812;11.762;2022-07-24T14:17:19;6.10;;;5.47;;
22160;SDS011;49035;48.812;11.762;2022-07-24T14:19:45;6.20;;;5.60;;
22160;SDS011;49035;48.812;11.762;2022-07-24T14:22:10;7.30;;;5.97;;
22160;SDS011;49035;48.812;11.762;2022-07-24T14:24:36;6.88;;;5.70;;
22160;SDS011;49035;48.812;11.762;2022-07-24T14:27:02;7.90;;;6.32;;
22160;SDS011;49035;48.812;11.762;2022-07-24T14:29:27;7.70;;;6.28;;
22160;SDS011;49035;48.812;11.762;2022-07-24T14:31:53;6.88;;;5.88;;
22160;SDS011;49035;48.812;11.762;2022-07-24T14:34:18;7.22;;;5.90;;
22160;SDS011;49035;48.812;11.762;2022-07-24T14:36:44;6.63;;;6.03;;
22160;SDS011;49035;48.812;11.762;2022-07-24T14:39:10;7.47;;;5.95;;
22160;SDS011;49035;48.812;11.762;2022-07-24T14:41:36;7.93;;;6.72;;
22160;SDS011;49035;48.812;11.762;2022-07-24T14:44:03;7.65;;;5.95;;
22160;SDS011;49035;48.812;11.762;2022-07-24T14:46:29;7.82;;;6.20;;
22160;SDS011;49035;48.812;11.762;2022-07-24T14:48:55;5.90;;;5.40;;
22160;SDS011;49035;48.812;11.762;2022-07-24T14:51:20;6.50;;;5.90;;
22160;SDS011;49035;48.812;11.762;2022-07-24T14:53:46;7.45;;;5.60;;
22160;SDS011;49035;48.812;11.762;2022-07-24T14:56:12;7.32;;;5.53;;
22160;SDS011;49035;48.812;11.762;2022-07-24T14:58:38;6.95;;;6.25;;
22160;SDS011;49035;48.812;11.762;2022-07-24T15:01:04;6.25;;;5.65;;